Time;durP1;ratioP1;P1;durP2;ratioP2;P2;SDS_P1;SDS_P2;PMS_P1;PMS_P2;Temp;Humidity;BMP_temperature;BMP_pressure;BME280_temperature;BME280_humidity;BME280_pressure;Samples;Min_cycle;Max_cycle;Signal;HPM_P1;HPM_P2
2020/12/16 00:00:41;;;;;;;31.42;20.17;;;;;;;4.74;90.12;102396.65;1920372;74;21172;-78
2020/12/16 00:03:08;;;;;;;29.23;19.57;;;;;;;4.72;90.12;102396.66;1920362;74;21507;-83
2020/12/16 00:09:27;;;;;;;31.80;20.80;;;;;;;4.69;90.05;102413.42;1920423;74;21019;-81
2020/12/16 00:15:49;;;;;;;32.45;21.10;;;;;;;4.67;89.99;102420.31;1920734;74;21162;-81
2020/12/16 00:18:17;;;;;;;34.15;21.80;;;;;;;4.62;89.75;102421.25;1920267;74;21098;-82
2020/12/16 00:20:45;;;;;;;31.62;20.68;;;;;;;4.56;89.69;102422.63;1920360;74;21467;-82
2020/12/16 00:23:13;;;;;;;29.98;20.10;;;;;;;4.55;89.75;102429.48;1920303;74;21472;-82
2020/12/16 00:25:41;;;;;;;32.80;21.52;;;;;;;4.55;89.93;102426.91;1920301;74;20892;-81
2020/12/16 00:28:08;;;;;;;31.73;21.10;;;;;;;4.54;89.70;102423.06;1920293;74;21159;-80
2020/12/16 00:30:37;;;;;;;32.08;20.25;;;;;;;4.51;89.76;102426.95;1920155;74;20909;-82
2020/12/16 00:33:53;;;;;;;30.15;20.55;;;;;;;4.50;89.80;102431.24;1920319;74;20870;-80
2020/12/16 00:36:22;;;;;;;32.88;20.02;;;;;;;4.49;89.81;102431.28;1920283;74;20897;-82
2020/12/16 00:38:50;;;;;;;32.50;21.85;;;;;;;4.49;90.01;102429.56;1920342;74;20952;-79
2020/12/16 00:41:18;;;;;;;36.40;22.75;;;;;;;4.49;89.72;102430.85;1920400;74;22082;-80
2020/12/16 00:43:46;;;;;;;35.10;21.12;;;;;;;4.44;89.72;102430.04;1920215;74;21039;-81
2020/12/16 00:46:14;;;;;;;30.75;19.85;;;;;;;4.42;89.90;102429.66;1920285;74;20873;-81
2020/12/16 00:51:40;;;;;;;34.48;22.37;;;;;;;4.39;90.05;102424.55;1887387;74;20905;-84
2020/12/16 00:54:09;;;;;;;35.13;21.23;;;;;;;4.37;89.96;102430.98;1887501;74;21340;-87
2020/12/16 00:56:42;;;;;;;29.25;19.17;;;;;;;4.35;90.16;102426.73;1920240;74;20964;-82
2020/12/16 00:59:10;;;;;;;31.15;18.98;;;;;;;4.32;90.12;102426.34;1920638;74;21499;-80
2020/12/16 01:04:43;;;;;;;32.40;19.87;;;;;;;4.25;90.14;102431.13;1920422;74;20944;-80
2020/12/16 01:07:11;;;;;;;32.50;20.85;;;;;;;4.20;90.53;102431.20;1920334;74;21942;-83
2020/12/16 01:09:39;;;;;;;34.85;22.02;;;;;;;4.18;90.65;102429.06;1920323;74;21516;-83
2020/12/16 01:12:08;;;;;;;32.98;21.20;;;;;;;4.18;90.61;102429.53;1920400;74;21472;-83
2020/12/16 01:14:37;;;;;;;33.70;21.75;;;;;;;4.14;90.76;102428.70;1920256;74;21054;-82
2020/12/16 01:17:05;;;;;;;33.58;20.80;;;;;;;4.11;90.71;102430.45;1887381;74;21027;-82
2020/12/16 01:19:34;;;;;;;33.83;19.73;;;;;;;4.10;90.95;102436.03;1920311;74;21115;-83
2020/12/16 01:22:02;;;;;;;35.92;22.58;;;;;;;4.12;90.91;102439.41;1920219;74;21479;-80
2020/12/16 01:24:31;;;;;;;35.68;20.80;;;;;;;4.09;90.79;102434.74;1887390;74;20933;-80
2020/12/16 01:26:59;;;;;;;35.00;21.45;;;;;;;4.06;90.95;102434.78;1920298;74;21067;-84
2020/12/16 01:29:27;;;;;;;33.40;21.33;;;;;;;4.04;90.91;102438.66;1920296;74;21483;-82
2020/12/16 01:31:56;;;;;;;31.42;20.88;;;;;;;4.02;90.87;102438.27;1920335;74;21172;-82
2020/12/16 01:34:26;;;;;;;35.65;23.02;;;;;;;4.01;91.02;102439.98;1919670;74;20877;-83
2020/12/16 01:36:55;;;;;;;34.25;20.95;;;;;;;4.01;91.02;102439.13;1919399;74;21082;-82
2020/12/16 01:39:23;;;;;;;35.50;20.65;;;;;;;3.98;91.17;102432.31;1920281;74;21456;-83
2020/12/16 01:41:52;;;;;;;37.45;22.50;;;;;;;3.99;91.17;102433.17;1920265;74;21681;-83
2020/12/16 01:44:25;;;;;;;36.40;22.42;;;;;;;3.99;91.21;102442.98;1919754;74;21359;-84
2020/12/16 01:46:57;;;;;;;35.75;22.05;;;;;;;4.00;91.23;102442.55;1919907;74;20912;-84
2020/12/16 01:49:27;;;;;;;36.95;22.20;;;;;;;3.98;91.11;102439.16;1920090;74;20909;-82
2020/12/16 01:52:06;;;;;;;35.60;21.77;;;;;;;3.93;90.88;102432.77;1920344;74;21063;-83
2020/12/16 01:54:37;;;;;;;37.75;23.02;;;;;;;3.91;91.00;102437.09;1919690;74;20909;-80
2020/12/16 01:57:06;;;;;;;34.15;22.67;;;;;;;3.92;91.25;102437.95;1887549;74;21279;-83
2020/12/16 01:59:36;;;;;;;37.60;22.73;;;;;;;3.88;91.14;102437.13;1924536;74;21471;-82
2020/12/16 02:02:07;;;;;;;38.28;22.50;;;;;;;3.85;91.09;102436.30;1927172;74;20906;-82
2020/12/16 02:04:42;;;;;;;39.58;23.80;;;;;;;3.82;91.16;102433.77;1927342;74;21471;-80
2020/12/16 02:07:11;;;;;;;42.43;25.90;;;;;;;3.80;91.09;102438.08;1927062;74;20901;-82
2020/12/16 02:09:43;;;;;;;43.00;24.67;;;;;;;3.73;91.25;102438.56;1898700;74;22210;-83
2020/12/16 02:16:38;;;;;;;50.10;25.15;;;;;;;3.66;91.55;102448.03;1927188;74;21448;-82
2020/12/16 02:19:08;;;;;;;48.80;26.93;;;;;;;3.60;91.69;102455.80;1927172;74;21075;-81
2020/12/16 02:21:37;;;;;;;50.60;26.45;;;;;;;3.54;91.76;102449.86;1926338;74;21633;-82
2020/12/16 02:24:50;;;;;;;47.95;24.75;;;;;;;3.48;92.15;102444.33;1927752;74;21341;-84
2020/12/16 02:27:18;;;;;;;47.80;26.30;;;;;;;3.44;92.26;102440.53;1926953;74;20913;-83
2020/12/16 02:29:46;;;;;;;49.95;26.62;;;;;;;3.37;92.50;102447.42;1899342;74;21077;-83
2020/12/16 02:32:16;;;;;;;45.40;25.12;;;;;;;3.33;93.03;102443.60;1923607;74;21665;-83
2020/12/16 02:34:44;;;;;;;48.85;26.25;;;;;;;3.31;93.09;102441.48;1898625;74;20929;-83
2020/12/16 02:37:12;;;;;;;45.20;25.57;;;;;;;3.25;92.99;102446.67;1927145;74;21181;-82
2020/12/16 02:39:42;;;;;;;49.27;26.80;;;;;;;3.22;93.34;102452.69;1926852;74;20952;-82
2020/12/16 02:42:21;;;;;;;50.90;27.10;;;;;;;3.24;93.72;102450.95;1927136;74;26500;-81
2020/12/16 02:44:51;;;;;;;51.20;27.48;;;;;;;3.28;93.92;102456.91;1927138;74;20912;-82
2020/12/16 02:47:27;;;;;;;49.10;26.82;;;;;;;3.29;94.02;102453.48;1925177;74;21455;-82
2020/12/16 02:49:55;;;;;;;51.63;28.15;;;;;;;3.29;93.97;102453.03;1927326;74;21483;-82
2020/12/16 02:52:23;;;;;;;48.90;26.02;;;;;;;3.27;93.98;102449.64;1927132;74;20912;-84
2020/12/16 02:58:53;;;;;;;47.25;26.00;;;;;;;3.22;93.80;102452.69;1920854;72;20964;-83
2020/12/16 03:01:21;;;;;;;50.55;26.73;;;;;;;3.17;94.09;102449.28;1917887;74;21376;-83
2020/12/16 03:03:50;;;;;;;55.30;27.67;;;;;;;3.15;94.22;102454.44;1911397;74;21179;-82
2020/12/16 03:06:39;;;;;;;47.45;25.60;;;;;;;3.14;94.18;102457.00;1916005;74;21463;-83
2020/12/16 03:09:09;;;;;;;51.48;27.17;;;;;;;3.12;94.46;102457.02;1917110;74;20948;-83
2020/12/16 03:11:38;;;;;;;52.67;27.67;;;;;;;3.12;94.86;102462.16;1917919;74;20894;-82
2020/12/16 03:14:08;;;;;;;53.00;27.87;;;;;;;3.14;95.00;102468.12;1917892;74;20905;-83
2020/12/16 03:16:37;;;;;;;51.68;27.90;;;;;;;3.17;95.19;102461.68;1917769;74;21171;-84
2020/12/16 03:19:13;;;;;;;55.38;29.60;;;;;;;3.16;95.15;102457.40;1916680;74;20932;-83
2020/12/16 03:21:41;;;;;;;57.55;28.07;;;;;;;3.17;95.16;102469.38;1917747;74;20920;-83
2020/12/16 03:24:19;;;;;;;53.55;29.20;;;;;;;3.17;95.23;102478.35;1916610;74;20956;-84
2020/12/16 03:26:51;;;;;;;51.40;26.87;;;;;;;3.16;95.36;102474.50;1916172;74;20904;-82
2020/12/16 03:29:39;;;;;;;49.75;27.07;;;;;;;3.18;95.48;102474.94;1916776;74;22242;-83
2020/12/16 03:32:14;;;;;;;53.30;28.17;;;;;;;3.20;95.56;102472.34;1913653;74;20917;-83
2020/12/16 03:34:44;;;;;;;58.25;28.98;;;;;;;3.22;95.49;102469.36;1905745;74;21063;-85
2020/12/16 03:37:14;;;;;;;53.87;28.32;;;;;;;3.22;95.49;102466.80;1917175;74;21475;-84
2020/12/16 03:39:43;;;;;;;52.10;26.05;;;;;;;3.23;95.50;102465.05;1917770;74;20933;-83
2020/12/16 03:42:12;;;;;;;52.08;28.07;;;;;;;3.26;95.54;102467.17;1917954;74;21176;-82
2020/12/16 03:44:40;;;;;;;59.98;27.85;;;;;;;3.26;95.53;102468.88;1917683;74;20953;-84
2020/12/16 03:51:11;;;;;;;59.50;29.27;;;;;;;3.26;95.59;102463.32;1917872;74;21448;-84
2020/12/16 03:53:40;;;;;;;52.00;26.55;;;;;;;3.25;95.54;102462.92;1918004;74;21459;-83
2020/12/16 03:56:28;;;;;;;55.25;26.30;;;;;;;3.28;95.65;102474.87;1915612;74;22083;-83
2020/12/16 03:59:11;;;;;;;53.42;27.82;;;;;;;3.29;95.63;102477.86;1917669;74;20921;-83
2020/12/16 04:01:46;;;;;;;52.05;27.60;;;;;;;3.29;95.51;102474.02;1916602;74;20948;-84
2020/12/16 04:04:14;;;;;;;50.73;26.55;;;;;;;3.29;95.50;102477.86;1920370;74;20959;-84
2020/12/16 04:06:44;;;;;;;50.08;27.60;;;;;;;3.30;95.58;102480.83;1920033;74;20976;-84
2020/12/16 04:14:00;;;;;;;53.30;27.70;;;;;;;3.31;95.48;102485.11;1920273;74;20913;-83
2020/12/16 04:16:30;;;;;;;44.83;24.32;;;;;;;3.32;95.56;102481.69;1920484;74;21495;-85
2020/12/16 04:19:02;;;;;;;;;;;;;;;3.31;95.52;102493.66;1922457;74;21043;-84
2020/12/16 04:21:31;;;;;;;46.58;23.67;;;;;;;3.28;95.22;102491.55;1920346;74;20217;-85
2020/12/16 04:23:59;;;;;;;42.43;23.05;;;;;;;3.22;95.10;102498.86;1920263;74;21267;-84
2020/12/16 04:26:29;;;;;;;41.65;22.05;;;;;;;3.19;95.06;102507.41;1917355;74;20932;-83
2020/12/16 04:28:59;;;;;;;36.17;20.62;;;;;;;3.19;95.21;102509.97;1919869;74;21471;-84
2020/12/16 04:31:27;;;;;;;41.37;21.27;;;;;;;3.22;95.24;102510.41;1920226;74;20897;-84
2020/12/16 04:33:55;;;;;;;41.55;22.45;;;;;;;3.19;94.97;102515.09;1920376;74;20917;-85
2020/12/16 04:36:24;;;;;;;40.00;22.10;;;;;;;3.19;94.82;102521.97;1887643;74;21239;-84
2020/12/16 04:38:53;;;;;;;33.85;18.98;;;;;;;3.19;94.92;102512.53;1887634;74;20956;-87
2020/12/16 04:41:21;;;;;;;34.43;20.37;;;;;;;3.18;94.68;102516.41;1887366;74;20987;-84
2020/12/16 04:43:51;;;;;;;33.88;19.70;;;;;;;3.11;94.36;102518.16;1919059;73;20968;-86
2020/12/16 04:46:19;;;;;;;31.48;18.87;;;;;;;3.07;94.32;102513.89;1859327;74;20921;-84
2020/12/16 04:48:47;;;;;;;35.20;19.55;;;;;;;3.05;94.33;102519.90;1887845;74;21062;-84
2020/12/16 04:51:19;;;;;;;;;;;;;;;3.03;94.30;102521.17;1922122;74;21519;-85
2020/12/16 04:53:47;;;;;;;35.43;20.27;;;;;;;3.06;94.59;102517.31;1920289;74;20225;-84
2020/12/16 04:56:17;;;;;;;39.13;20.80;;;;;;;3.02;94.56;102525.05;1918961;74;20909;-85
2020/12/16 04:58:46;;;;;;;30.68;17.27;;;;;;;3.00;94.70;102525.04;1917491;74;21031;-83
2020/12/16 05:01:15;;;;;;;33.90;17.82;;;;;;;3.02;94.85;102528.89;1920294;74;21169;-84
2020/12/16 05:03:45;;;;;;;28.12;16.45;;;;;;;3.01;94.73;102528.46;1919201;74;20929;-85
2020/12/16 05:06:40;;;;;;;34.75;18.23;;;;;;;2.99;94.67;102525.92;1918680;74;20905;-83
2020/12/16 05:09:10;;;;;;;30.77;17.10;;;;;;;3.00;94.58;102529.34;1920223;74;21007;-84
2020/12/16 05:12:11;;;;;;;28.45;17.17;;;;;;;3.00;94.74;102536.58;1920443;74;21511;-84
2020/12/16 05:14:39;;;;;;;33.23;19.20;;;;;;;3.01;94.66;102542.14;1920374;74;22121;-84
2020/12/16 05:17:07;;;;;;;29.18;17.37;;;;;;;3.02;94.66;102539.16;1920216;74;20933;-84
2020/12/16 05:19:44;;;;;;;29.40;16.32;;;;;;;3.01;94.61;102540.00;1919337;74;20936;-85
2020/12/16 05:22:31;;;;;;;30.30;16.15;;;;;;;3.02;94.51;102541.72;1920356;74;20909;-84
2020/12/16 05:24:59;;;;;;;27.10;15.28;;;;;;;3.04;94.33;102550.24;1920214;74;21036;-85
2020/12/16 05:27:32;;;;;;;34.20;17.25;;;;;;;3.04;94.09;102552.81;1920186;74;21176;-83
2020/12/16 05:30:04;;;;;;;;;;;;;;;3.04;94.10;102557.52;1922919;73;20921;-84
2020/12/16 05:32:38;;;;;;;27.57;14.90;;;;;;;3.07;94.17;102556.64;1920580;74;20145;-83
2020/12/16 05:35:30;;;;;;;26.35;14.58;;;;;;;3.08;94.11;102560.49;1919892;74;21467;-84
2020/12/16 05:38:03;;;;;;;27.37;14.63;;;;;;;3.08;93.94;102557.93;1920324;74;20886;-85
2020/12/16 05:40:31;;;;;;;25.23;14.10;;;;;;;3.04;93.61;102558.80;1920580;74;22217;-85
2020/12/16 05:42:59;;;;;;;22.20;13.60;;;;;;;3.01;93.46;102558.81;1920444;74;21468;-85
2020/12/16 05:45:29;;;;;;;32.88;15.08;;;;;;;2.99;93.40;102557.98;1920223;74;21071;-85
2020/12/16 05:48:09;;;;;;;33.53;18.17;;;;;;;3.02;93.44;102559.24;1920129;74;21486;-84
2020/12/16 05:50:47;;;;;;;30.52;16.85;;;;;;;3.04;93.45;102566.91;1920435;74;20992;-85
2020/12/16 05:53:22;;;;;;;28.17;15.70;;;;;;;3.00;93.25;102566.08;1920484;74;22074;-85
2020/12/16 05:56:04;;;;;;;29.27;15.58;;;;;;;2.94;93.29;102566.10;1919864;74;20936;-85
2020/12/16 05:58:33;;;;;;;28.23;15.28;;;;;;;2.94;93.47;102560.97;1919815;73;21122;-86
2020/12/16 06:01:48;;;;;;;35.80;17.48;;;;;;;2.99;93.71;102560.55;1917721;73;20877;-85
2020/12/16 06:08:12;;;;;;;29.45;17.40;;;;;;;3.05;93.73;102573.76;1917726;74;21424;-83
2020/12/16 06:10:44;;;;;;;32.88;18.60;;;;;;;3.06;93.87;102575.47;1917605;74;20940;-85
2020/12/16 06:13:13;;;;;;;41.45;21.00;;;;;;;3.08;93.90;102575.88;1917933;74;21054;-84
2020/12/16 06:16:03;;;;;;;37.13;19.17;;;;;;;3.09;93.91;102574.17;1917549;74;20924;-84
2020/12/16 06:18:45;;;;;;;35.80;20.30;;;;;;;3.12;94.04;102584.00;1917643;74;21035;-84
2020/12/16 06:21:14;;;;;;;32.17;18.87;;;;;;;3.10;94.00;102580.98;1917593;73;21171;-84
2020/12/16 06:23:43;;;;;;;36.05;19.67;;;;;;;3.12;94.08;102581.86;1917583;74;20948;-84
2020/12/16 06:26:17;;;;;;;43.68;21.40;;;;;;;3.13;94.03;102587.38;1917847;74;21067;-85
2020/12/16 06:28:45;;;;;;;43.95;19.23;;;;;;;3.14;94.23;102583.97;1918082;74;20928;-85
2020/12/16 06:31:26;;;;;;;37.73;20.57;;;;;;;3.12;94.09;102585.70;1917772;74;20900;-85
2020/12/16 06:34:02;;;;;;;36.60;19.27;;;;;;;3.10;94.13;102591.25;1917616;73;21167;-86
2020/12/16 06:36:37;;;;;;;46.23;23.30;;;;;;;3.11;94.27;102597.67;1917813;74;21499;-86
2020/12/16 06:39:21;;;;;;;44.08;21.87;;;;;;;3.11;94.21;102600.23;1917951;74;21483;-85
2020/12/16 06:41:57;;;;;;;42.55;21.00;;;;;;;3.11;94.29;102596.81;1917671;73;20885;-85
2020/12/16 06:44:25;;;;;;;39.70;22.48;;;;;;;3.07;94.15;102599.81;1917934;74;21032;-84
2020/12/16 06:46:54;;;;;;;43.40;21.52;;;;;;;3.04;94.15;102597.69;1917697;73;21166;-85
2020/12/16 06:49:26;;;;;;;40.95;22.02;;;;;;;3.04;94.55;102590.86;1917607;74;21062;-84
2020/12/16 06:52:00;;;;;;;35.33;19.77;;;;;;;3.08;94.90;102594.27;1917840;74;21067;-85
2020/12/16 06:58:39;;;;;;;42.05;19.98;;;;;;;3.18;94.74;102590.38;1815385;79;22619;-86
2020/12/16 07:01:20;;;;;;;41.05;21.80;;;;;;;3.16;94.90;102600.20;1787431;79;21222;-86
2020/12/16 07:07:57;;;;;;;42.48;23.27;;;;;;;3.18;94.69;102603.63;1726211;83;21595;-84
2020/12/16 07:10:41;;;;;;;41.88;22.62;;;;;;;3.16;94.75;102603.62;1736873;82;20943;-85
2020/12/16 07:13:30;;;;;;;34.98;19.65;;;;;;;3.15;94.90;102612.63;1716734;82;21181;-85
2020/12/16 07:18:48;;;;;;;35.60;19.62;;;;;;;3.20;95.04;102610.88;1954938;72;21939;-86
2020/12/16 07:21:24;;;;;;;40.03;21.27;;;;;;;3.23;95.21;102613.42;1896589;75;20914;-84
2020/12/16 07:24:08;;;;;;;31.82;18.87;;;;;;;3.29;95.32;102611.28;1898484;73;21765;-86
